sensor_id;sensor_type;location;lat;lon;timestamp;temperature;humidity
80274;DHT22;69576;51.902;-8.462;2023-12-20T00:01:36;13.70;77.70
80274;DHT22;69576;51.902;-8.462;2023-12-20T00:04:05;13.70;77.40
80274;DHT22;69576;51.902;-8.462;2023-12-20T00:06:31;13.70;77.40
80274;DHT22;69576;51.902;-8.462;2023-12-20T00:08:59;13.70;77.20
80274;DHT22;69576;51.902;-8.462;2023-12-20T00:11:27;13.60;77.30
80274;DHT22;69576;51.902;-8.462;2023-12-20T00:13:53;13.60;77.50
80274;DHT22;69576;51.902;-8.462;2023-12-20T00:16:21;13.60;77.30
80274;DHT22;69576;51.902;-8.462;2023-12-20T00:18:49;13.60;77.30
80274;DHT22;69576;51.902;-8.462;2023-12-20T00:21:17;13.60;77.40
80274;DHT22;69576;51.902;-8.462;2023-12-20T00:23:43;13.60;77.50
80274;DHT22;69576;51.902;-8.462;2023-12-20T00:26:09;13.60;77.50
80274;DHT22;69576;51.902;-8.462;2023-12-20T00:28:34;13.60;77.60
80274;DHT22;69576;51.902;-8.462;2023-12-20T00:31:00;13.60;77.50
80274;DHT22;69576;51.902;-8.462;2023-12-20T00:33:28;13.60;77.40
80274;DHT22;69576;51.902;-8.462;2023-12-20T00:35:56;13.60;77.40
80274;DHT22;69576;51.902;-8.462;2023-12-20T00:38:22;13.60;77.50
80274;DHT22;69576;51.902;-8.462;2023-12-20T00:40:48;13.60;77.60
80274;DHT22;69576;51.902;-8.462;2023-12-20T00:43:17;13.60;77.50
80274;DHT22;69576;51.902;-8.462;2023-12-20T00:45:46;13.60;77.50
80274;DHT22;69576;51.902;-8.462;2023-12-20T00:48:11;13.50;77.50
80274;DHT22;69576;51.902;-8.462;2023-12-20T00:50:39;13.50;77.60
80274;DHT22;69576;51.902;-8.462;2023-12-20T00:53:05;13.50;77.60
80274;DHT22;69576;51.902;-8.462;2023-12-20T00:55:31;13.50;77.80
80274;DHT22;69576;51.902;-8.462;2023-12-20T00:58:01;13.50;77.70
80274;DHT22;69576;51.902;-8.462;2023-12-20T01:00:27;13.60;77.60
80274;DHT22;69576;51.902;-8.462;2023-12-20T01:02:53;13.50;77.30
80274;DHT22;69576;51.902;-8.462;2023-12-20T01:05:19;13.50;77.60
80274;DHT22;69576;51.902;-8.462;2023-12-20T01:07:45;13.50;77.70
80274;DHT22;69576;51.902;-8.462;2023-12-20T01:10:10;13.50;77.90
80274;DHT22;69576;51.902;-8.462;2023-12-20T01:12:36;13.50;77.90
80274;DHT22;69576;51.902;-8.462;2023-12-20T01:15:07;13.60;78.00
80274;DHT22;69576;51.902;-8.462;2023-12-20T01:17:37;13.60;77.90
80274;DHT22;69576;51.902;-8.462;2023-12-20T01:20:03;13.60;77.90
80274;DHT22;69576;51.902;-8.462;2023-12-20T01:22:34;13.60;77.80
80274;DHT22;69576;51.902;-8.462;2023-12-20T01:25:01;13.60;77.90
80274;DHT22;69576;51.902;-8.462;2023-12-20T01:27:28;13.60;77.80
80274;DHT22;69576;51.902;-8.462;2023-12-20T01:29:54;13.60;77.60
80274;DHT22;69576;51.902;-8.462;2023-12-20T01:32:22;13.60;77.90
80274;DHT22;69576;51.902;-8.462;2023-12-20T01:34:48;13.60;77.80
80274;DHT22;69576;51.902;-8.462;2023-12-20T01:37:19;13.60;77.70
80274;DHT22;69576;51.902;-8.462;2023-12-20T01:39:49;13.60;77.90
80274;DHT22;69576;51.902;-8.462;2023-12-20T01:42:15;13.60;77.90
80274;DHT22;69576;51.902;-8.462;2023-12-20T01:44:45;13.60;77.70
80274;DHT22;69576;51.902;-8.462;2023-12-20T01:47:13;13.60;77.70
80274;DHT22;69576;51.902;-8.462;2023-12-20T01:49:41;13.50;77.80
80274;DHT22;69576;51.902;-8.462;2023-12-20T01:52:08;13.60;77.50
80274;DHT22;69576;51.902;-8.462;2023-12-20T01:54:35;13.60;77.70
80274;DHT22;69576;51.902;-8.462;2023-12-20T01:57:01;13.50;77.70
80274;DHT22;69576;51.902;-8.462;2023-12-20T01:59:28;13.60;77.80
80274;DHT22;69576;51.902;-8.462;2023-12-20T02:01:57;13.50;77.90
80274;DHT22;69576;51.902;-8.462;2023-12-20T02:04:23;13.60;77.50
80274;DHT22;69576;51.902;-8.462;2023-12-20T02:06:53;13.50;77.70
80274;DHT22;69576;51.902;-8.462;2023-12-20T02:09:22;13.50;77.50
80274;DHT22;69576;51.902;-8.462;2023-12-20T02:11:50;13.50;77.50
80274;DHT22;69576;51.902;-8.462;2023-12-20T02:14:16;13.50;77.70
80274;DHT22;69576;51.902;-8.462;2023-12-20T02:16:45;13.50;77.50
80274;DHT22;69576;51.902;-8.462;2023-12-20T02:19:14;13.50;77.70
80274;DHT22;69576;51.902;-8.462;2023-12-20T02:21:42;13.50;77.80
80274;DHT22;69576;51.902;-8.462;2023-12-20T02:24:08;13.50;77.80
80274;DHT22;69576;51.902;-8.462;2023-12-20T02:26:34;13.50;77.80
80274;DHT22;69576;51.902;-8.462;2023-12-20T02:29:04;13.60;77.70
80274;DHT22;69576;51.902;-8.462;2023-12-20T02:31:30;13.50;77.80
80274;DHT22;69576;51.902;-8.462;2023-12-20T02:33:55;13.60;77.50
80274;DHT22;69576;51.902;-8.462;2023-12-20T02:36:21;13.50;77.60
80274;DHT22;69576;51.902;-8.462;2023-12-20T02:38:49;13.50;77.60
80274;DHT22;69576;51.902;-8.462;2023-12-20T02:41:17;13.50;77.80
80274;DHT22;69576;51.902;-8.462;2023-12-20T02:43:45;13.50;77.70
80274;DHT22;69576;51.902;-8.462;2023-12-20T02:46:12;13.50;77.80
80274;DHT22;69576;51.902;-8.462;2023-12-20T02:48:39;13.50;77.90
80274;DHT22;69576;51.902;-8.462;2023-12-20T02:51:05;13.50;77.70
80274;DHT22;69576;51.902;-8.462;2023-12-20T02:53:30;13.50;77.70
80274;DHT22;69576;51.902;-8.462;2023-12-20T02:55:58;13.50;77.90
80274;DHT22;69576;51.902;-8.462;2023-12-20T02:58:26;13.50;77.90
80274;DHT22;69576;51.902;-8.462;2023-12-20T03:00:52;13.50;77.80
80274;DHT22;69576;51.902;-8.462;2023-12-20T03:03:18;13.50;77.70
80274;DHT22;69576;51.902;-8.462;2023-12-20T03:05:48;13.50;77.90
80274;DHT22;69576;51.902;-8.462;2023-12-20T03:08:14;13.50;77.80
80274;DHT22;69576;51.902;-8.462;2023-12-20T03:10:40;13.50;77.90
80274;DHT22;69576;51.902;-8.462;2023-12-20T03:13:06;13.50;77.90
80274;DHT22;69576;51.902;-8.462;2023-12-20T03:15:34;13.60;78.10
80274;DHT22;69576;51.902;-8.462;2023-12-20T03:18:02;13.60;78.20
80274;DHT22;69576;51.902;-8.462;2023-12-20T03:20:28;13.60;77.90
80274;DHT22;69576;51.902;-8.462;2023-12-20T03:22:54;13.60;78.00
80274;DHT22;69576;51.902;-8.462;2023-12-20T03:25:19;13.60;78.10
80274;DHT22;69576;51.902;-8.462;2023-12-20T03:27:48;13.60;78.20
80274;DHT22;69576;51.902;-8.462;2023-12-20T03:30:13;13.60;78.00
80274;DHT22;69576;51.902;-8.462;2023-12-20T03:32:39;13.60;77.90
80274;DHT22;69576;51.902;-8.462;2023-12-20T03:35:08;13.60;77.90
80274;DHT22;69576;51.902;-8.462;2023-12-20T03:37:34;13.60;78.00
80274;DHT22;69576;51.902;-8.462;2023-12-20T03:40:02;13.60;77.90
80274;DHT22;69576;51.902;-8.462;2023-12-20T03:42:28;13.70;77.90
80274;DHT22;69576;51.902;-8.462;2023-12-20T03:44:56;13.60;77.70
80274;DHT22;69576;51.902;-8.462;2023-12-20T03:47:22;13.60;77.50
80274;DHT22;69576;51.902;-8.462;2023-12-20T03:49:48;13.60;77.70
80274;DHT22;69576;51.902;-8.462;2023-12-20T03:52:16;13.60;77.90
80274;DHT22;69576;51.902;-8.462;2023-12-20T03:54:41;13.60;77.60
80274;DHT22;69576;51.902;-8.462;2023-12-20T03:57:08;13.60;77.70
80274;DHT22;69576;51.902;-8.462;2023-12-20T03:59:37;13.60;78.00
80274;DHT22;69576;51.902;-8.462;2023-12-20T04:02:07;13.60;78.00
80274;DHT22;69576;51.902;-8.462;2023-12-20T04:04:36;13.60;78.10
80274;DHT22;69576;51.902;-8.462;2023-12-20T04:07:04;13.60;78.00
80274;DHT22;69576;51.902;-8.462;2023-12-20T04:09:31;13.60;77.70
80274;DHT22;69576;51.902;-8.462;2023-12-20T04:11:57;13.60;77.90
80274;DHT22;69576;51.902;-8.462;2023-12-20T04:14:25;13.60;77.90
80274;DHT22;69576;51.902;-8.462;2023-12-20T04:16:54;13.60;77.80
80274;DHT22;69576;51.902;-8.462;2023-12-20T04:19:20;13.60;77.80
80274;DHT22;69576;51.902;-8.462;2023-12-20T04:21:48;13.60;77.80
80274;DHT22;69576;51.902;-8.462;2023-12-20T04:24:13;13.60;77.80
80274;DHT22;69576;51.902;-8.462;2023-12-20T04:26:39;13.60;78.10
80274;DHT22;69576;51.902;-8.462;2023-12-20T04:29:10;13.60;77.80
80274;DHT22;69576;51.902;-8.462;2023-12-20T04:31:35;13.60;77.60
80274;DHT22;69576;51.902;-8.462;2023-12-20T04:34:01;13.60;77.80
80274;DHT22;69576;51.902;-8.462;2023-12-20T04:36:27;13.60;77.70
80274;DHT22;69576;51.902;-8.462;2023-12-20T04:38:55;13.60;77.70
80274;DHT22;69576;51.902;-8.462;2023-12-20T04:41:23;13.60;77.90
80274;DHT22;69576;51.902;-8.462;2023-12-20T04:43:49;13.60;77.90
80274;DHT22;69576;51.902;-8.462;2023-12-20T04:46:14;13.60;77.60
80274;DHT22;69576;51.902;-8.462;2023-12-20T04:48:40;13.60;77.70
80274;DHT22;69576;51.902;-8.462;2023-12-20T04:51:11;13.60;77.70
80274;DHT22;69576;51.902;-8.462;2023-12-20T04:53:39;13.60;77.50
80274;DHT22;69576;51.902;-8.462;2023-12-20T04:56:07;13.60;77.70
80274;DHT22;69576;51.902;-8.462;2023-12-20T04:58:35;13.60;77.70
80274;DHT22;69576;51.902;-8.462;2023-12-20T05:01:01;13.60;77.80
80274;DHT22;69576;51.902;-8.462;2023-12-20T05:03:29;13.60;77.70
80274;DHT22;69576;51.902;-8.462;2023-12-20T05:05:55;13.60;77.70
80274;DHT22;69576;51.902;-8.462;2023-12-20T05:08:20;13.60;77.60
80274;DHT22;69576;51.902;-8.462;2023-12-20T05:10:49;13.60;77.60
80274;DHT22;69576;51.902;-8.462;2023-12-20T05:13:17;13.60;77.70
80274;DHT22;69576;51.902;-8.462;2023-12-20T05:15:43;13.60;77.60
80274;DHT22;69576;51.902;-8.462;2023-12-20T05:18:09;13.60;77.70
80274;DHT22;69576;51.902;-8.462;2023-12-20T05:20:39;13.60;77.80
80274;DHT22;69576;51.902;-8.462;2023-12-20T05:23:09;13.60;77.70
80274;DHT22;69576;51.902;-8.462;2023-12-20T05:25:37;13.60;77.80
80274;DHT22;69576;51.902;-8.462;2023-12-20T05:28:02;13.60;77.50
80274;DHT22;69576;51.902;-8.462;2023-12-20T05:30:31;13.60;77.40
80274;DHT22;69576;51.902;-8.462;2023-12-20T05:32:56;13.60;77.50
80274;DHT22;69576;51.902;-8.462;2023-12-20T05:35:24;13.60;77.60
80274;DHT22;69576;51.902;-8.462;2023-12-20T05:37:52;13.60;77.60
80274;DHT22;69576;51.902;-8.462;2023-12-20T05:40:18;13.60;77.60
80274;DHT22;69576;51.902;-8.462;2023-12-20T05:42:46;13.60;77.50
80274;DHT22;69576;51.902;-8.462;2023-12-20T05:45:12;13.60;77.50
80274;DHT22;69576;51.902;-8.462;2023-12-20T05:47:38;13.60;77.60
80274;DHT22;69576;51.902;-8.462;2023-12-20T05:50:04;13.60;77.70
80274;DHT22;69576;51.902;-8.462;2023-12-20T05:52:30;13.60;77.60
80274;DHT22;69576;51.902;-8.462;2023-12-20T05:54:55;13.60;77.60
80274;DHT22;69576;51.902;-8.462;2023-12-20T05:57:23;13.60;77.70
80274;DHT22;69576;51.902;-8.462;2023-12-20T05:59:49;13.60;77.80
80274;DHT22;69576;51.902;-8.462;2023-12-20T06:02:17;13.60;77.60
80274;DHT22;69576;51.902;-8.462;2023-12-20T06:04:43;13.60;77.70
80274;DHT22;69576;51.902;-8.462;2023-12-20T06:07:12;13.60;77.80
80274;DHT22;69576;51.902;-8.462;2023-12-20T06:09:42;13.60;77.80
80274;DHT22;69576;51.902;-8.462;2023-12-20T06:12:08;13.60;77.70
80274;DHT22;69576;51.902;-8.462;2023-12-20T06:14:34;13.60;77.70
80274;DHT22;69576;51.902;-8.462;2023-12-20T06:17:00;13.60;77.40
80274;DHT22;69576;51.902;-8.462;2023-12-20T06:19:29;13.60;77.60
80274;DHT22;69576;51.902;-8.462;2023-12-20T06:21:55;13.60;77.50
80274;DHT22;69576;51.902;-8.462;2023-12-20T06:24:23;13.60;77.80
80274;DHT22;69576;51.902;-8.462;2023-12-20T06:26:55;13.60;77.80
80274;DHT22;69576;51.902;-8.462;2023-12-20T06:29:25;13.60;77.70
80274;DHT22;69576;51.902;-8.462;2023-12-20T06:31:54;13.60;77.70
80274;DHT22;69576;51.902;-8.462;2023-12-20T06:34:19;13.60;77.80
80274;DHT22;69576;51.902;-8.462;2023-12-20T06:36:47;13.60;77.70
80274;DHT22;69576;51.902;-8.462;2023-12-20T06:39:15;13.60;77.90
80274;DHT22;69576;51.902;-8.462;2023-12-20T06:41:41;13.60;77.80
80274;DHT22;69576;51.902;-8.462;2023-12-20T06:44:09;13.60;78.10
80274;DHT22;69576;51.902;-8.462;2023-12-20T06:46:39;13.70;78.10
80274;DHT22;69576;51.902;-8.462;2023-12-20T06:49:07;13.70;78.10
80274;DHT22;69576;51.902;-8.462;2023-12-20T06:51:33;13.70;78.20
80274;DHT22;69576;51.902;-8.462;2023-12-20T06:53:59;13.70;78.30
80274;DHT22;69576;51.902;-8.462;2023-12-20T06:56:25;13.80;78.30
80274;DHT22;69576;51.902;-8.462;2023-12-20T06:58:51;13.80;78.30
80274;DHT22;69576;51.902;-8.462;2023-12-20T07:01:21;13.90;78.30
80274;DHT22;69576;51.902;-8.462;2023-12-20T07:03:50;13.90;78.30
80274;DHT22;69576;51.902;-8.462;2023-12-20T07:06:16;13.90;78.40
80274;DHT22;69576;51.902;-8.462;2023-12-20T07:08:42;14.00;78.30
80274;DHT22;69576;51.902;-8.462;2023-12-20T07:11:10;14.00;78.30
80274;DHT22;69576;51.902;-8.462;2023-12-20T07:13:38;14.00;78.30
80274;DHT22;69576;51.902;-8.462;2023-12-20T07:16:04;14.00;78.30
80274;DHT22;69576;51.902;-8.462;2023-12-20T07:18:30;14.10;78.30
80274;DHT22;69576;51.902;-8.462;2023-12-20T07:20:56;14.10;78.30
80274;DHT22;69576;51.902;-8.462;2023-12-20T07:23:24;14.10;78.00
80274;DHT22;69576;51.902;-8.462;2023-12-20T07:25:51;14.20;77.90
80274;DHT22;69576;51.902;-8.462;2023-12-20T07:28:19;14.20;77.90
80274;DHT22;69576;51.902;-8.462;2023-12-20T07:30:46;14.20;78.00
80274;DHT22;69576;51.902;-8.462;2023-12-20T07:33:12;14.20;77.90
80274;DHT22;69576;51.902;-8.462;2023-12-20T07:35:40;14.20;78.00
80274;DHT22;69576;51.902;-8.462;2023-12-20T07:38:06;14.30;77.90
80274;DHT22;69576;51.902;-8.462;2023-12-20T07:40:34;14.30;77.80
80274;DHT22;69576;51.902;-8.462;2023-12-20T07:43:00;14.30;77.90
80274;DHT22;69576;51.902;-8.462;2023-12-20T07:45:28;14.30;77.80
80274;DHT22;69576;51.902;-8.462;2023-12-20T07:47:56;14.30;77.80
80274;DHT22;69576;51.902;-8.462;2023-12-20T07:50:24;14.40;77.80
80274;DHT22;69576;51.902;-8.462;2023-12-20T07:52:50;14.40;77.90
80274;DHT22;69576;51.902;-8.462;2023-12-20T07:55:18;14.40;78.00
80274;DHT22;69576;51.902;-8.462;2023-12-20T07:57:44;14.40;78.00
80274;DHT22;69576;51.902;-8.462;2023-12-20T08:00:10;14.40;77.90
80274;DHT22;69576;51.902;-8.462;2023-12-20T08:02:36;14.50;77.80
80274;DHT22;69576;51.902;-8.462;2023-12-20T08:05:04;14.50;77.80
80274;DHT22;69576;51.902;-8.462;2023-12-20T08:07:32;14.50;77.80
80274;DHT22;69576;51.902;-8.462;2023-12-20T08:10:02;14.50;77.80
80274;DHT22;69576;51.902;-8.462;2023-12-20T08:12:31;14.50;77.80
80274;DHT22;69576;51.902;-8.462;2023-12-20T08:14:59;14.50;77.70
80274;DHT22;69576;51.902;-8.462;2023-12-20T08:17:27;14.50;77.70
80274;DHT22;69576;51.902;-8.462;2023-12-20T08:19:53;14.50;77.60
80274;DHT22;69576;51.902;-8.462;2023-12-20T08:22:21;14.50;77.60
80274;DHT22;69576;51.902;-8.462;2023-12-20T08:24:50;14.50;77.50
80274;DHT22;69576;51.902;-8.462;2023-12-20T08:27:16;14.50;77.40
80274;DHT22;69576;51.902;-8.462;2023-12-20T08:29:45;14.40;77.30
80274;DHT22;69576;51.902;-8.462;2023-12-20T08:32:11;14.40;77.30
80274;DHT22;69576;51.902;-8.462;2023-12-20T08:34:37;14.40;77.20
80274;DHT22;69576;51.902;-8.462;2023-12-20T08:37:03;14.40;77.20
80274;DHT22;69576;51.902;-8.462;2023-12-20T08:39:29;14.40;77.00
80274;DHT22;69576;51.902;-8.462;2023-12-20T08:41:55;14.30;77.00
80274;DHT22;69576;51.902;-8.462;2023-12-20T08:44:23;14.30;77.10
80274;DHT22;69576;51.902;-8.462;2023-12-20T08:46:49;14.30;77.10
80274;DHT22;69576;51.902;-8.462;2023-12-20T08:49:15;14.30;77.10
80274;DHT22;69576;51.902;-8.462;2023-12-20T08:51:43;14.30;77.00
80274;DHT22;69576;51.902;-8.462;2023-12-20T08:54:11;14.30;77.00
80274;DHT22;69576;51.902;-8.462;2023-12-20T08:56:39;14.30;77.00
80274;DHT22;69576;51.902;-8.462;2023-12-20T08:59:07;14.30;77.00
80274;DHT22;69576;51.902;-8.462;2023-12-20T09:01:32;14.30;76.90
80274;DHT22;69576;51.902;-8.462;2023-12-20T09:04:01;14.30;76.90
80274;DHT22;69576;51.902;-8.462;2023-12-20T09:06:29;14.30;76.90
80274;DHT22;69576;51.902;-8.462;2023-12-20T09:08:55;14.30;76.90
80274;DHT22;69576;51.902;-8.462;2023-12-20T09:11:23;14.30;76.90
80274;DHT22;69576;51.902;-8.462;2023-12-20T09:13:48;14.30;76.80
80274;DHT22;69576;51.902;-8.462;2023-12-20T09:16:14;14.30;76.90
80274;DHT22;69576;51.902;-8.462;2023-12-20T09:18:42;14.30;76.80
80274;DHT22;69576;51.902;-8.462;2023-12-20T09:21:09;14.30;76.60
80274;DHT22;69576;51.902;-8.462;2023-12-20T09:23:35;14.30;76.80
80274;DHT22;69576;51.902;-8.462;2023-12-20T09:26:02;14.30;76.60
80274;DHT22;69576;51.902;-8.462;2023-12-20T09:28:30;14.30;76.50
80274;DHT22;69576;51.902;-8.462;2023-12-20T09:31:00;14.30;76.60
80274;DHT22;69576;51.902;-8.462;2023-12-20T09:33:26;14.30;76.60
80274;DHT22;69576;51.902;-8.462;2023-12-20T09:35:51;14.30;76.60
80274;DHT22;69576;51.902;-8.462;2023-12-20T09:38:20;14.30;76.60
80274;DHT22;69576;51.902;-8.462;2023-12-20T09:40:45;14.30;76.50
80274;DHT22;69576;51.902;-8.462;2023-12-20T09:43:14;14.30;76.50
80274;DHT22;69576;51.902;-8.462;2023-12-20T09:45:46;14.30;76.40
80274;DHT22;69576;51.902;-8.462;2023-12-20T09:48:12;14.30;76.30
80274;DHT22;69576;51.902;-8.462;2023-12-20T09:50:40;14.30;76.30
80274;DHT22;69576;51.902;-8.462;2023-12-20T09:53:14;14.30;76.30
80274;DHT22;69576;51.902;-8.462;2023-12-20T09:55:43;14.30;76.40
80274;DHT22;69576;51.902;-8.462;2023-12-20T09:58:13;14.30;76.30
80274;DHT22;69576;51.902;-8.462;2023-12-20T10:00:39;14.30;76.40
80274;DHT22;69576;51.902;-8.462;2023-12-20T10:03:06;14.30;76.30
80274;DHT22;69576;51.902;-8.462;2023-12-20T10:05:33;14.30;76.10
80274;DHT22;69576;51.902;-8.462;2023-12-20T10:08:04;14.30;76.00
80274;DHT22;69576;51.902;-8.462;2023-12-20T10:10:30;14.30;76.20
80274;DHT22;69576;51.902;-8.462;2023-12-20T10:13:07;14.30;76.30
80274;DHT22;69576;51.902;-8.462;2023-12-20T10:15:34;14.30;76.20
80274;DHT22;69576;51.902;-8.462;2023-12-20T10:18:00;14.30;76.30
80274;DHT22;69576;51.902;-8.462;2023-12-20T10:20:32;14.30;76.20
80274;DHT22;69576;51.902;-8.462;2023-12-20T10:22:58;14.30;76.20
80274;DHT22;69576;51.902;-8.462;2023-12-20T10:25:25;14.30;75.90
80274;DHT22;69576;51.902;-8.462;2023-12-20T10:30:38;14.40;76.00
80274;DHT22;69576;51.902;-8.462;2023-12-20T10:33:06;14.30;75.80
80274;DHT22;69576;51.902;-8.462;2023-12-20T10:35:34;14.30;75.90
80274;DHT22;69576;51.902;-8.462;2023-12-20T10:38:03;14.40;75.80
80274;DHT22;69576;51.902;-8.462;2023-12-20T10:40:30;14.30;75.80
80274;DHT22;69576;51.902;-8.462;2023-12-20T10:42:56;14.40;75.70
80274;DHT22;69576;51.902;-8.462;2023-12-20T10:45:23;14.40;75.60
80274;DHT22;69576;51.902;-8.462;2023-12-20T10:47:52;14.40;75.50
80274;DHT22;69576;51.902;-8.462;2023-12-20T10:50:19;14.40;75.50
80274;DHT22;69576;51.902;-8.462;2023-12-20T10:52:47;14.40;75.60
80274;DHT22;69576;51.902;-8.462;2023-12-20T10:55:17;14.40;75.70
80274;DHT22;69576;51.902;-8.462;2023-12-20T10:57:46;14.40;75.70
80274;DHT22;69576;51.902;-8.462;2023-12-20T11:00:19;14.50;75.70
80274;DHT22;69576;51.902;-8.462;2023-12-20T11:02:49;14.50;75.60
80274;DHT22;69576;51.902;-8.462;2023-12-20T11:05:30;14.50;75.60
80274;DHT22;69576;51.902;-8.462;2023-12-20T11:07:59;14.50;75.50
80274;DHT22;69576;51.902;-8.462;2023-12-20T11:10:47;14.50;75.50
80274;DHT22;69576;51.902;-8.462;2023-12-20T11:13:22;14.60;75.50
80274;DHT22;69576;51.902;-8.462;2023-12-20T11:15:48;14.60;75.50
80274;DHT22;69576;51.902;-8.462;2023-12-20T11:18:15;14.60;75.50
80274;DHT22;69576;51.902;-8.462;2023-12-20T11:20:41;14.60;75.40
80274;DHT22;69576;51.902;-8.462;2023-12-20T11:23:10;14.60;75.50
80274;DHT22;69576;51.902;-8.462;2023-12-20T11:25:46;14.70;75.50
80274;DHT22;69576;51.902;-8.462;2023-12-20T11:28:23;14.70;75.20
80274;DHT22;69576;51.902;-8.462;2023-12-20T11:30:50;14.70;75.00
80274;DHT22;69576;51.902;-8.462;2023-12-20T11:33:22;14.60;75.00
80274;DHT22;69576;51.902;-8.462;2023-12-20T11:35:50;14.70;75.00
80274;DHT22;69576;51.902;-8.462;2023-12-20T11:38:20;14.60;74.80
80274;DHT22;69576;51.902;-8.462;2023-12-20T11:40:49;14.70;74.80
80274;DHT22;69576;51.902;-8.462;2023-12-20T11:43:37;14.70;74.80
80274;DHT22;69576;51.902;-8.462;2023-12-20T11:46:09;14.70;74.80
80274;DHT22;69576;51.902;-8.462;2023-12-20T11:48:37;14.70;75.00
80274;DHT22;69576;51.902;-8.462;2023-12-20T11:51:08;14.70;74.90
80274;DHT22;69576;51.902;-8.462;2023-12-20T11:53:36;14.70;74.80
80274;DHT22;69576;51.902;-8.462;2023-12-20T11:56:10;14.70;74.50
80274;DHT22;69576;51.902;-8.462;2023-12-20T11:58:41;14.70;74.80
80274;DHT22;69576;51.902;-8.462;2023-12-20T12:01:07;14.70;74.80
80274;DHT22;69576;51.902;-8.462;2023-12-20T12:03:34;14.70;74.80
80274;DHT22;69576;51.902;-8.462;2023-12-20T12:06:00;14.70;74.70
80274;DHT22;69576;51.902;-8.462;2023-12-20T12:08:30;14.70;74.60
80274;DHT22;69576;51.902;-8.462;2023-12-20T12:10:58;14.70;74.60
80274;DHT22;69576;51.902;-8.462;2023-12-20T12:13:23;14.70;74.60
80274;DHT22;69576;51.902;-8.462;2023-12-20T12:15:53;14.70;74.50
80274;DHT22;69576;51.902;-8.462;2023-12-20T12:18:21;14.70;74.40
80274;DHT22;69576;51.902;-8.462;2023-12-20T12:20:49;14.70;74.50
80274;DHT22;69576;51.902;-8.462;2023-12-20T12:23:23;14.70;74.40
80274;DHT22;69576;51.902;-8.462;2023-12-20T12:25:51;14.70;74.40
80274;DHT22;69576;51.902;-8.462;2023-12-20T12:28:17;14.70;74.40
80274;DHT22;69576;51.902;-8.462;2023-12-20T12:30:55;14.70;74.50
80274;DHT22;69576;51.902;-8.462;2023-12-20T12:33:26;14.70;74.30
80274;DHT22;69576;51.902;-8.462;2023-12-20T12:35:54;14.60;74.30
80274;DHT22;69576;51.902;-8.462;2023-12-20T12:38:23;14.70;74.20
80274;DHT22;69576;51.902;-8.462;2023-12-20T12:40:51;14.70;74.20
80274;DHT22;69576;51.902;-8.462;2023-12-20T12:43:24;14.60;74.10
80274;DHT22;69576;51.902;-8.462;2023-12-20T12:45:53;14.60;74.10
80274;DHT22;69576;51.902;-8.462;2023-12-20T12:48:19;14.60;74.20
80274;DHT22;69576;51.902;-8.462;2023-12-20T12:50:48;14.60;74.10
80274;DHT22;69576;51.902;-8.462;2023-12-20T12:53:18;14.70;74.10
80274;DHT22;69576;51.902;-8.462;2023-12-20T12:55:44;14.70;74.20
80274;DHT22;69576;51.902;-8.462;2023-12-20T12:58:11;14.70;74.30
80274;DHT22;69576;51.902;-8.462;2023-12-20T13:00:37;14.70;74.20
80274;DHT22;69576;51.902;-8.462;2023-12-20T13:03:05;14.70;74.20
80274;DHT22;69576;51.902;-8.462;2023-12-20T13:05:31;14.70;74.20
80274;DHT22;69576;51.902;-8.462;2023-12-20T13:07:57;14.70;74.20
80274;DHT22;69576;51.902;-8.462;2023-12-20T13:10:24;14.70;74.20
80274;DHT22;69576;51.902;-8.462;2023-12-20T13:12:52;14.70;74.20
80274;DHT22;69576;51.902;-8.462;2023-12-20T13:15:18;14.70;74.20
80274;DHT22;69576;51.902;-8.462;2023-12-20T13:17:43;14.70;74.20
80274;DHT22;69576;51.902;-8.462;2023-12-20T13:20:14;14.70;74.20
80274;DHT22;69576;51.902;-8.462;2023-12-20T13:22:42;14.70;74.20
80274;DHT22;69576;51.902;-8.462;2023-12-20T13:25:07;14.70;74.20
80274;DHT22;69576;51.902;-8.462;2023-12-20T13:27:33;14.70;74.20
80274;DHT22;69576;51.902;-8.462;2023-12-20T13:30:00;14.70;73.90
80274;DHT22;69576;51.902;-8.462;2023-12-20T13:32:25;14.70;73.40
80274;DHT22;69576;51.902;-8.462;2023-12-20T13:34:51;14.70;73.30
80274;DHT22;69576;51.902;-8.462;2023-12-20T13:37:19;14.60;73.00
80274;DHT22;69576;51.902;-8.462;2023-12-20T13:39:46;14.60;73.20
80274;DHT22;69576;51.902;-8.462;2023-12-20T13:42:12;14.60;73.00
80274;DHT22;69576;51.902;-8.462;2023-12-20T13:44:40;14.60;72.80
80274;DHT22;69576;51.902;-8.462;2023-12-20T13:47:06;14.50;72.60
80274;DHT22;69576;51.902;-8.462;2023-12-20T13:49:34;14.50;72.60
80274;DHT22;69576;51.902;-8.462;2023-12-20T13:52:00;14.50;72.80
80274;DHT22;69576;51.902;-8.462;2023-12-20T13:54:26;14.50;72.60
80274;DHT22;69576;51.902;-8.462;2023-12-20T13:56:56;14.40;72.20
80274;DHT22;69576;51.902;-8.462;2023-12-20T13:59:23;14.40;72.60
80274;DHT22;69576;51.902;-8.462;2023-12-20T14:01:49;14.40;72.40
80274;DHT22;69576;51.902;-8.462;2023-12-20T14:04:16;14.40;72.20
80274;DHT22;69576;51.902;-8.462;2023-12-20T14:06:47;14.40;72.40
80274;DHT22;69576;51.902;-8.462;2023-12-20T14:09:15;14.30;72.50
80274;DHT22;69576;51.902;-8.462;2023-12-20T14:11:41;14.30;72.30
80274;DHT22;69576;51.902;-8.462;2023-12-20T14:14:07;14.30;72.50
80274;DHT22;69576;51.902;-8.462;2023-12-20T14:16:34;14.30;72.50
80274;DHT22;69576;51.902;-8.462;2023-12-20T14:19:08;14.30;72.60
80274;DHT22;69576;51.902;-8.462;2023-12-20T14:21:37;14.30;72.60
80274;DHT22;69576;51.902;-8.462;2023-12-20T14:24:03;14.30;72.70
80274;DHT22;69576;51.902;-8.462;2023-12-20T14:26:30;14.30;72.70
80274;DHT22;69576;51.902;-8.462;2023-12-20T14:28:56;14.30;72.80
80274;DHT22;69576;51.902;-8.462;2023-12-20T14:31:24;14.30;72.90
80274;DHT22;69576;51.902;-8.462;2023-12-20T14:33:50;14.30;73.00
80274;DHT22;69576;51.902;-8.462;2023-12-20T14:36:19;14.30;73.00
80274;DHT22;69576;51.902;-8.462;2023-12-20T14:38:45;14.30;73.00
80274;DHT22;69576;51.902;-8.462;2023-12-20T14:41:12;14.30;73.10
80274;DHT22;69576;51.902;-8.462;2023-12-20T14:43:40;14.30;73.20
80274;DHT22;69576;51.902;-8.462;2023-12-20T14:46:06;14.30;73.20
80274;DHT22;69576;51.902;-8.462;2023-12-20T14:48:32;14.30;73.20
80274;DHT22;69576;51.902;-8.462;2023-12-20T14:50:59;14.30;73.30
80274;DHT22;69576;51.902;-8.462;2023-12-20T14:53:26;14.30;73.30
80274;DHT22;69576;51.902;-8.462;2023-12-20T14:55:55;14.30;73.30
80274;DHT22;69576;51.902;-8.462;2023-12-20T14:58:21;14.20;73.40
80274;DHT22;69576;51.902;-8.462;2023-12-20T15:00:49;14.30;73.40
80274;DHT22;69576;51.902;-8.462;2023-12-20T15:03:15;14.30;73.50
80274;DHT22;69576;51.902;-8.462;2023-12-20T15:05:44;14.30;73.60
80274;DHT22;69576;51.902;-8.462;2023-12-20T15:08:11;14.20;73.60
80274;DHT22;69576;51.902;-8.462;2023-12-20T15:10:40;14.30;73.60
80274;DHT22;69576;51.902;-8.462;2023-12-20T15:13:05;14.30;73.70
80274;DHT22;69576;51.902;-8.462;2023-12-20T15:15:31;14.30;73.70
80274;DHT22;69576;51.902;-8.462;2023-12-20T15:17:59;14.20;73.70
80274;DHT22;69576;51.902;-8.462;2023-12-20T15:20:28;14.20;73.70